Time;durP1;ratioP1;P1;durP2;ratioP2;P2;SDS_P1;SDS_P2;PMS_P1;PMS_P2;Temp;Humidity;BMP_temperature;BMP_pressure;BME280_temperature;BME280_humidity;BME280_pressure;Samples;Min_cycle;Max_cycle;Signal;HPM_P1;HPM_P2
2023/04/08 00:00:32;;;;;;;44.45;20.60;;;;;;;7.44;100.00;101910.16;5068418;28;20032;-73
2023/04/08 00:02:57;;;;;;;43.50;21.27;;;;;;;7.41;100.00;101908.63;5078848;28;20029;-75
2023/04/08 00:05:23;;;;;;;37.53;20.45;;;;;;;7.42;100.00;101915.44;5065412;28;20066;-74
2023/04/08 00:07:48;;;;;;;45.00;19.77;;;;;;;7.42;100.00;101912.84;5068140;28;20028;-74
2023/04/08 00:10:14;;;;;;;51.08;22.60;;;;;;;7.41;100.00;101918.94;5048508;28;20457;-75
2023/04/08 00:12:39;;;;;;;47.80;22.08;;;;;;;7.41;100.00;101912.03;5085241;27;20051;-75
2023/04/08 00:15:05;;;;;;;46.67;21.75;;;;;;;7.36;100.00;101921.84;5061858;28;20036;-75
2023/04/08 00:17:31;;;;;;;47.65;21.77;;;;;;;7.33;100.00;101921.25;5064031;28;20289;-75
2023/04/08 00:19:57;;;;;;;44.33;21.45;;;;;;;7.31;100.00;101917.94;5082863;28;20027;-75
2023/04/08 00:22:23;;;;;;;45.65;20.10;;;;;;;7.39;100.00;101921.63;5052043;28;20513;-75
2023/04/08 00:24:48;;;;;;;43.17;21.60;;;;;;;7.35;100.00;101917.63;5082388;28;20051;-74
2023/04/08 00:27:14;;;;;;;44.13;21.23;;;;;;;7.38;100.00;101922.59;5058902;28;20044;-74
2023/04/08 00:29:39;;;;;;;47.80;20.70;;;;;;;7.36;100.00;101926.19;5048860;28;20367;-73
2023/04/08 00:32:06;;;;;;;42.58;21.38;;;;;;;7.38;100.00;101932.91;5055058;28;20048;-74
2023/04/08 00:34:31;;;;;;;56.22;22.85;;;;;;;7.37;100.00;101922.69;5059544;28;20039;-76
2023/04/08 00:36:58;;;;;;;58.92;22.60;;;;;;;7.35;100.00;101927.13;5060625;28;20044;-74
2023/04/08 00:39:24;;;;;;;48.33;20.38;;;;;;;7.33;100.00;101931.56;5085049;28;20045;-75
2023/04/08 00:41:50;;;;;;;56.45;22.10;;;;;;;7.32;100.00;101929.91;5064430;28;20102;-74
2023/04/08 00:44:15;;;;;;;52.10;21.45;;;;;;;7.35;100.00;101932.28;5065758;28;20024;-75
2023/04/08 00:46:41;;;;;;;55.10;23.80;;;;;;;7.33;100.00;101934.16;5067403;28;20041;-75
2023/04/08 00:49:06;;;;;;;50.22;22.63;;;;;;;7.30;100.00;101929.19;5070626;28;20032;-75
2023/04/08 00:51:32;;;;;;;59.05;22.48;;;;;;;7.34;100.00;101928.88;5066377;28;20024;-74
2023/04/08 00:53:59;;;;;;;47.88;21.83;;;;;;;7.28;100.00;101931.88;5079876;28;20040;-75
2023/04/08 00:56:25;;;;;;;49.17;22.02;;;;;;;7.28;100.00;101931.06;5066569;28;20033;-75
2023/04/08 00:58:53;;;;;;;47.63;21.05;;;;;;;7.29;100.00;101935.28;5081896;28;20042;-76
2023/04/08 01:01:46;;;;;;;45.70;21.20;;;;;;;7.31;100.00;101938.56;5083163;28;20035;-76
2023/04/08 01:04:16;;;;;;;40.47;20.60;;;;;;;7.27;100.00;101931.97;5066209;28;20036;-75
2023/04/08 01:06:56;;;;;;;44.55;20.83;;;;;;;7.26;100.00;101940.66;5085532;28;20078;-76
2023/04/08 01:09:26;;;;;;;42.55;20.38;;;;;;;7.31;100.00;101936.84;5048932;28;20048;-76
2023/04/08 01:11:53;;;;;;;36.47;19.33;;;;;;;7.24;100.00;101943.34;5064429;28;20068;-75
2023/04/08 01:14:22;;;;;;;43.58;21.25;;;;;;;7.25;100.00;101941.59;5089161;28;20032;-76
2023/04/08 01:16:51;;;;;;;45.57;22.33;;;;;;;7.23;100.00;101944.28;5048014;28;20135;-76
2023/04/08 01:19:31;;;;;;;41.47;21.00;;;;;;;7.25;100.00;101936.44;5072329;28;20122;-75
2023/04/08 01:22:06;;;;;;;47.58;22.80;;;;;;;7.26;100.00;101935.50;5083610;27;20047;-74
2023/04/08 01:24:37;;;;;;;40.20;19.52;;;;;;;7.21;100.00;101946.97;5101630;28;20072;-74
2023/04/08 01:27:05;;;;;;;42.60;21.48;;;;;;;7.26;100.00;101944.06;5066742;28;20131;-75
2023/04/08 01:29:33;;;;;;;46.38;21.70;;;;;;;7.28;100.00;101946.53;5055636;28;20024;-74
2023/04/08 01:32:00;;;;;;;42.17;21.58;;;;;;;7.28;100.00;101946.53;5086375;28;20063;-75
2023/04/08 01:34:28;;;;;;;46.97;21.77;;;;;;;7.30;100.00;101948.06;5074236;28;20819;-74
2023/04/08 01:36:57;;;;;;;43.10;21.00;;;;;;;7.31;100.00;101954.06;5071810;28;20023;-74
2023/04/08 01:39:24;;;;;;;47.47;21.30;;;;;;;7.31;100.00;101947.16;5067957;28;20029;-75
2023/04/08 01:41:52;;;;;;;50.60;22.17;;;;;;;7.31;100.00;101941.16;5069414;28;20032;-75
2023/04/08 01:44:20;;;;;;;43.50;20.88;;;;;;;7.31;100.00;101948.91;5076858;28;20038;-74
2023/04/08 01:46:46;;;;;;;47.13;22.00;;;;;;;7.32;100.00;101950.56;5072954;28;20035;-75
2023/04/08 01:49:13;;;;;;;48.50;22.02;;;;;;;7.30;100.00;101953.25;5088847;28;20028;-72
2023/04/08 01:51:39;;;;;;;49.65;21.92;;;;;;;7.24;100.00;101956.25;5082833;28;20032;-74
2023/04/08 01:54:05;;;;;;;43.55;21.67;;;;;;;7.25;100.00;101955.31;5070044;28;20463;-75
2023/04/08 01:56:34;;;;;;;41.08;21.02;;;;;;;7.25;100.00;101957.06;5071251;28;20036;-74
2023/04/08 01:59:02;;;;;;;49.45;24.08;;;;;;;7.27;100.00;101956.06;5067474;28;20127;-75
2023/04/08 02:01:29;;;;;;;47.33;23.35;;;;;;;7.26;100.00;101951.81;5064926;28;20067;-75
2023/04/08 02:03:56;;;;;;;47.42;21.55;;;;;;;7.24;100.00;101958.84;5089169;28;21951;-74
2023/04/08 02:06:25;;;;;;;41.40;22.25;;;;;;;7.24;100.00;101955.44;5073574;28;20501;-74
2023/04/08 02:08:50;;;;;;;52.13;22.63;;;;;;;7.27;100.00;101953.47;5084973;28;20039;-74
2023/04/08 02:11:16;;;;;;;55.83;25.67;;;;;;;7.24;100.00;101960.59;5063571;28;20035;-75
2023/04/08 02:13:41;;;;;;;50.17;22.95;;;;;;;7.30;100.00;101955.81;5070698;28;20036;-75
2023/04/08 02:16:21;;;;;;;50.20;22.67;;;;;;;7.29;100.00;101954.19;5083204;28;20036;-73
2023/04/08 02:19:22;;;;;;;52.65;24.42;;;;;;;7.29;100.00;101963.66;5088428;28;20036;-74
2023/04/08 02:21:54;;;;;;;49.45;22.73;;;;;;;7.26;100.00;101962.13;5029834;28;20137;-74
2023/04/08 02:24:20;;;;;;;49.50;23.25;;;;;;;7.25;100.00;101963.03;5082349;28;20024;-73
2023/04/08 02:26:49;;;;;;;50.15;23.88;;;;;;;7.24;100.00;101963.19;5065778;28;20031;-74
2023/04/08 02:29:17;;;;;;;59.97;24.35;;;;;;;7.25;100.00;101967.38;5084171;28;20028;-73
2023/04/08 02:31:43;;;;;;;56.80;24.08;;;;;;;7.30;100.00;101966.13;5051224;28;20474;-75
2023/04/08 02:34:10;;;;;;;47.63;23.38;;;;;;;7.27;100.00;101966.38;5071353;28;20765;-73
2023/04/08 02:36:36;;;;;;;46.75;23.38;;;;;;;7.24;100.00;101961.41;5066040;28;20085;-75
2023/04/08 02:39:03;;;;;;;48.30;23.77;;;;;;;7.26;100.00;101963.88;5068943;28;20085;-74
2023/04/08 02:41:29;;;;;;;53.25;24.73;;;;;;;7.26;100.00;101963.88;5072445;28;20044;-74
2023/04/08 02:43:55;;;;;;;54.20;23.42;;;;;;;7.27;100.00;101966.38;5063169;28;20036;-74
2023/04/08 02:46:21;;;;;;;53.05;24.70;;;;;;;7.31;100.00;101969.53;5086561;28;20474;-74
2023/04/08 02:48:46;;;;;;;51.75;24.75;;;;;;;7.28;100.00;101965.41;5089797;28;20142;-74
2023/04/08 02:51:12;;;;;;;64.35;26.70;;;;;;;7.29;100.00;101968.81;5077926;28;20122;-73
2023/04/08 02:53:37;;;;;;;61.03;26.10;;;;;;;7.27;100.00;101962.94;5072258;28;20032;-74
2023/04/08 02:56:03;;;;;;;62.15;26.02;;;;;;;7.34;100.00;101959.84;5070070;28;20421;-74
2023/04/08 02:58:28;;;;;;;54.58;24.30;;;;;;;7.35;100.00;101968.41;5068466;28;20036;-74
2023/04/08 03:00:54;;;;;;;53.05;25.98;;;;;;;7.32;100.00;101966.84;5070008;28;20093;-73
2023/04/08 03:03:26;;;;;;;68.65;25.73;;;;;;;7.30;100.00;101963.56;5057140;28;20131;-72
2023/04/08 03:05:52;;;;;;;57.92;26.15;;;;;;;7.29;100.00;101961.09;5087184;28;20046;-74
2023/04/08 03:08:18;;;;;;;61.80;26.08;;;;;;;7.28;100.00;101962.84;5089115;28;20032;-74
2023/04/08 03:10:43;;;;;;;54.95;24.95;;;;;;;7.25;100.00;101967.38;5065966;28;20033;-74
2023/04/08 03:13:09;;;;;;;56.58;24.02;;;;;;;7.25;100.00;101967.38;5088425;28;20028;-74
2023/04/08 03:15:35;;;;;;;55.47;24.60;;;;;;;7.25;100.00;101964.81;5088770;28;20438;-74
2023/04/08 03:18:00;;;;;;;61.33;25.42;;;;;;;7.26;100.00;101963.88;5067901;28;20036;-72
2023/04/08 03:20:26;;;;;;;54.58;26.20;;;;;;;7.24;100.00;101964.00;5080530;28;20035;-74
2023/04/08 03:22:51;;;;;;;56.88;26.27;;;;;;;7.24;100.00;101969.16;5075331;28;20028;-74
2023/04/08 03:25:17;;;;;;;62.97;26.25;;;;;;;7.25;100.00;101964.81;5086619;28;20024;-74
2023/04/08 03:27:42;;;;;;;60.88;26.40;;;;;;;7.25;100.00;101969.97;5084467;28;20520;-74
2023/04/08 03:30:08;;;;;;;59.20;26.35;;;;;;;7.23;100.00;101970.06;5072335;28;20044;-74
2023/04/08 03:32:34;;;;;;;66.07;27.73;;;;;;;7.25;100.00;101975.13;5069166;28;20040;-74
2023/04/08 03:34:59;;;;;;;64.95;27.55;;;;;;;7.25;100.00;101972.53;5084578;28;20051;-74
2023/04/08 03:37:25;;;;;;;58.35;26.13;;;;;;;7.24;100.00;101981.22;5089480;28;20039;-75
2023/04/08 03:39:50;;;;;;;64.25;27.48;;;;;;;7.23;100.00;101982.97;5090586;28;20036;-74
2023/04/08 03:42:15;;;;;;;66.57;28.55;;;;;;;7.25;100.00;101983.69;5085812;28;20504;-74
2023/04/08 03:44:41;;;;;;;62.53;27.30;;;;;;;7.25;100.00;101983.69;5073098;28;20040;-74
2023/04/08 03:47:06;;;;;;;65.53;27.30;;;;;;;7.25;100.00;101982.88;5093176;28;20035;-74
2023/04/08 03:49:32;;;;;;;68.95;29.50;;;;;;;7.27;100.00;101989.59;5077243;28;20039;-75
2023/04/08 03:51:57;;;;;;;65.63;27.42;;;;;;;7.25;100.00;101988.03;5073441;28;20043;-72
2023/04/08 03:54:23;;;;;;;71.72;28.23;;;;;;;7.27;100.00;101992.16;5087318;28;20023;-74
2023/04/08 03:56:49;;;;;;;65.57;27.77;;;;;;;7.27;100.00;101988.75;5086577;28;20031;-74
2023/04/08 03:59:14;;;;;;;66.32;27.92;;;;;;;7.24;100.00;101989.78;5080199;28;20438;-73
2023/04/08 04:01:40;;;;;;;59.00;24.60;;;;;;;7.24;100.00;101986.41;5070559;28;20032;-71
2023/04/08 04:04:05;;;;;;;65.03;26.85;;;;;;;7.24;100.00;101986.41;5071201;28;20043;-74
2023/04/08 04:06:31;;;;;;;58.65;26.55;;;;;;;7.30;100.00;101988.53;5083354;28;20058;-74
2023/04/08 04:08:56;;;;;;;67.78;29.50;;;;;;;7.30;100.00;101989.38;5090037;28;20143;-72
2023/04/08 04:11:22;;;;;;;70.45;29.20;;;;;;;7.31;100.00;101987.59;5062823;28;20032;-74
2023/04/08 04:13:48;;;;;;;71.10;28.77;;;;;;;7.34;100.00;101993.38;5083522;28;20627;-74
2023/04/08 04:16:13;;;;;;;60.80;26.77;;;;;;;7.30;100.00;101985.97;5068844;28;20039;-73
2023/04/08 04:18:38;;;;;;;67.70;29.33;;;;;;;7.26;100.00;101984.53;5084059;28;20032;-73
2023/04/08 04:21:06;;;;;;;65.10;27.77;;;;;;;7.25;100.00;101988.03;5086576;28;20040;-74
2023/04/08 04:23:31;;;;;;;69.18;28.67;;;;;;;7.23;100.00;101988.13;5087112;28;20048;-74
2023/04/08 04:25:56;;;;;;;57.40;27.20;;;;;;;7.19;100.00;101994.44;5084447;28;20024;-73
2023/04/08 04:28:22;;;;;;;68.22;28.27;;;;;;;7.16;100.00;102003.22;5070709;28;20390;-74
2023/04/08 04:30:47;;;;;;;61.15;27.73;;;;;;;7.14;100.00;102002.50;5068220;28;20490;-73
2023/04/08 04:33:13;;;;;;;63.65;26.92;;;;;;;7.17;100.00;102004.03;5083357;28;20139;-72
2023/04/08 04:35:38;;;;;;;66.10;28.25;;;;;;;7.15;100.00;102008.47;5069361;28;20044;-74
2023/04/08 04:38:09;;;;;;;68.82;29.02;;;;;;;7.13;100.00;102006.00;5085577;28;20429;-74
2023/04/08 04:40:35;;;;;;;63.85;27.77;;;;;;;7.11;100.00;102009.63;5070119;28;20031;-74
2023/04/08 04:43:00;;;;;;;67.28;29.85;;;;;;;7.07;100.00;102016.72;5085126;28;20036;-74
2023/04/08 04:45:26;;;;;;;65.43;28.45;;;;;;;7.07;100.00;102018.50;5071267;28;20032;-73
2023/04/08 04:47:51;;;;;;;62.92;27.42;;;;;;;7.06;100.00;102009.91;5063351;28;20032;-74
2023/04/08 04:50:17;;;;;;;62.65;27.98;;;;;;;7.09;100.00;102016.63;5091139;28;20044;-74
2023/04/08 04:52:43;;;;;;;65.07;28.08;;;;;;;7.04;100.00;102023.84;5072986;28;20042;-74
2023/04/08 04:55:09;;;;;;;72.15;31.75;;;;;;;7.00;100.00;102026.63;5083295;28;21071;-74
2023/04/08 04:57:35;;;;;;;79.47;32.67;;;;;;;7.00;100.00;102023.22;5086968;28;20412;-75
2023/04/08 05:00:00;;;;;;;84.38;33.40;;;;;;;7.02;100.00;102029.09;5088634;28;20036;-74
2023/04/08 05:02:26;;;;;;;82.97;33.50;;;;;;;7.00;100.00;102028.38;5049358;28;20478;-73
2023/04/08 05:04:52;;;;;;;85.03;34.15;;;;;;;7.02;100.00;102031.69;5084571;28;20028;-74
2023/04/08 05:07:18;;;;;;;92.95;34.55;;;;;;;7.00;100.00;102030.97;5066077;28;20479;-74
2023/04/08 05:09:43;;;;;;;92.32;35.42;;;;;;;6.97;100.00;102033.75;5085774;28;20067;-73
2023/04/08 05:12:09;;;;;;;91.07;34.13;;;;;;;6.97;100.00;102034.59;5055516;28;20037;-73
2023/04/08 05:14:34;;;;;;;83.75;32.95;;;;;;;6.98;100.00;102040.56;5085319;28;20058;-75
2023/04/08 05:17:00;;;;;;;91.57;35.08;;;;;;;6.96;100.00;102038.06;5084591;28;20051;-73
2023/04/08 05:19:25;;;;;;;89.60;34.25;;;;;;;6.98;100.00;102046.53;5085818;28;20030;-73
2023/04/08 05:21:51;;;;;;;87.10;34.20;;;;;;;7.00;100.00;102046.44;5082837;28;20418;-74
2023/04/08 05:24:16;;;;;;;89.78;33.70;;;;;;;7.06;100.00;102046.03;5069796;28;20140;-73
2023/04/08 05:26:42;;;;;;;88.60;35.20;;;;;;;7.04;100.00;102052.22;5084605;28;20100;-74
2023/04/08 05:29:07;;;;;;;85.28;33.33;;;;;;;7.07;100.00;102046.88;5065615;28;20028;-73
2023/04/08 05:31:33;;;;;;;86.72;34.60;;;;;;;7.07;100.00;102052.84;5085107;28;20028;-73
2023/04/08 05:33:58;;;;;;;89.60;36.22;;;;;;;7.07;100.00;102050.25;5067421;28;20376;-73
2023/04/08 05:36:25;;;;;;;93.75;35.33;;;;;;;7.09;100.00;102043.25;5068062;28;20031;-73
2023/04/08 05:38:50;;;;;;;93.60;34.63;;;;;;;7.08;100.00;102053.66;5066271;28;20036;-73
2023/04/08 05:41:16;;;;;;;77.18;32.10;;;;;;;7.07;100.00;102049.44;5085825;28;20540;-73
2023/04/08 05:43:41;;;;;;;84.85;32.70;;;;;;;7.08;100.00;102049.31;5071951;28;20100;-73
2023/04/08 05:46:08;;;;;;;80.28;31.83;;;;;;;7.10;100.00;102052.66;5087412;28;20101;-73
2023/04/08 05:48:34;;;;;;;90.07;35.58;;;;;;;7.12;100.00;102058.53;5066104;28;20039;-73
2023/04/08 05:50:59;;;;;;;84.93;35.28;;;;;;;7.09;100.00;102058.72;5098455;28;20483;-73
2023/04/08 05:53:25;;;;;;;89.50;33.83;;;;;;;7.16;100.00;102061.72;5082821;28;20409;-74
2023/04/08 05:55:50;;;;;;;100.75;34.70;;;;;;;7.26;100.00;102067.91;5066921;28;20032;-73
2023/04/08 05:58:16;;;;;;;82.32;33.05;;;;;;;7.21;100.00;102068.22;5072201;28;20032;-73
2023/04/08 06:00:41;;;;;;;79.10;32.22;;;;;;;7.21;100.00;102070.81;5086544;28;20043;-74
2023/04/08 06:03:07;;;;;;;88.88;35.47;;;;;;;7.22;100.00;102069.88;5065044;28;20069;-74
2023/04/08 06:05:32;;;;;;;88.93;34.90;;;;;;;7.24;100.00;102077.50;5069703;28;20101;-73
2023/04/08 06:07:58;;;;;;;99.95;37.33;;;;;;;7.25;100.00;102078.31;5071072;28;20036;-73
2023/04/08 06:10:23;;;;;;;101.18;36.22;;;;;;;7.25;100.00;102081.72;5087424;28;20032;-73
2023/04/08 06:12:49;;;;;;;92.63;35.22;;;;;;;7.26;100.00;102092.91;5071053;28;20185;-73
2023/04/08 06:15:15;;;;;;;83.78;34.35;;;;;;;7.25;100.00;102091.22;5089472;28;20430;-73
2023/04/08 06:17:41;;;;;;;85.63;35.25;;;;;;;7.25;100.00;102083.50;5085582;28;20387;-73
2023/04/08 06:20:08;;;;;;;77.35;32.95;;;;;;;7.23;100.00;102086.16;5074279;28;20039;-74
2023/04/08 06:22:35;;;;;;;81.38;33.22;;;;;;;7.34;100.00;102091.44;5057403;28;20027;-73
2023/04/08 06:25:01;;;;;;;85.60;34.80;;;;;;;7.35;100.00;102087.13;5067373;28;20563;-74
2023/04/08 06:27:26;;;;;;;86.60;35.55;;;;;;;7.39;100.00;102091.97;5075276;28;20031;-73
2023/04/08 06:29:52;;;;;;;86.07;36.53;;;;;;;7.35;100.00;102100.03;5086004;28;20075;-73
2023/04/08 06:32:18;;;;;;;76.63;31.73;;;;;;;7.37;100.00;102103.31;5076404;28;20037;-73
2023/04/08 06:34:47;;;;;;;87.07;34.33;;;;;;;7.50;100.00;102106.72;5086431;28;20048;-73
2023/04/08 06:37:12;;;;;;;77.53;32.13;;;;;;;7.56;100.00;102106.31;5081024;28;20394;-73
2023/04/08 06:39:38;;;;;;;86.53;35.00;;;;;;;7.56;100.00;102108.06;5086979;28;20032;-73
2023/04/08 06:42:03;;;;;;;95.53;38.63;;;;;;;7.64;100.00;102100.59;5085444;28;20040;-73
2023/04/08 06:44:52;;;;;;;92.93;35.67;;;;;;;7.60;100.00;102110.31;5077565;28;20931;-73
2023/04/08 06:47:17;;;;;;;93.53;37.03;;;;;;;7.58;100.00;102109.59;5084799;28;20035;-73
2023/04/08 06:49:42;;;;;;;93.10;34.88;;;;;;;7.63;100.00;102104.13;5091647;28;20040;-73
2023/04/08 06:52:08;;;;;;;91.00;37.28;;;;;;;7.67;100.00;102112.50;5087855;28;20032;-73
2023/04/08 06:54:33;;;;;;;99.53;37.95;;;;;;;7.74;100.00;102116.28;5072181;28;20028;-73
2023/04/08 06:56:59;;;;;;;95.32;38.90;;;;;;;7.67;100.00;102118.47;5086438;28;20092;-73
2023/04/08 06:59:24;;;;;;;95.90;39.03;;;;;;;7.69;100.00;102115.81;5071911;28;20040;-73
2023/04/08 07:01:50;;;;;;;104.63;39.25;;;;;;;7.73;100.00;102117.25;5066440;28;20047;-73
2023/04/08 07:04:16;;;;;;;93.78;38.92;;;;;;;7.83;100.00;102113.06;5053879;28;21603;-73
2023/04/08 07:06:41;;;;;;;97.80;40.60;;;;;;;7.80;100.00;102114.13;5068687;28;20032;-73
2023/04/08 07:09:07;;;;;;;102.65;42.75;;;;;;;7.81;100.00;102120.09;5087850;28;20627;-75
2023/04/08 07:11:32;;;;;;;104.03;42.05;;;;;;;7.84;100.00;102117.31;5087055;28;20405;-74
2023/04/08 07:13:59;;;;;;;98.38;39.65;;;;;;;7.85;100.00;102113.78;5059725;28;20086;-74
2023/04/08 07:16:24;;;;;;;89.55;39.05;;;;;;;7.87;100.00;102117.09;5087422;28;20115;-73
2023/04/08 07:18:50;;;;;;;103.20;41.60;;;;;;;7.91;100.00;102115.13;5093142;28;20036;-73
2023/04/08 07:21:15;;;;;;;101.43;41.72;;;;;;;7.97;100.00;102115.53;5090128;28;20464;-73
2023/04/08 07:23:41;;;;;;;99.80;42.25;;;;;;;7.97;100.00;102125.06;5086269;28;20039;-74
2023/04/08 07:26:06;;;;;;;103.28;42.05;;;;;;;8.01;100.00;102117.94;5088959;28;20077;-74
2023/04/08 07:28:32;;;;;;;102.63;41.92;;;;;;;8.21;100.00;102122.50;5092433;28;20029;-74
2023/04/08 07:31:14;;;;;;;99.60;41.13;;;;;;;8.34;100.00;102120.72;5059600;28;20056;-73
2023/04/08 07:33:40;;;;;;;105.07;42.75;;;;;;;8.76;100.00;102118.59;5073338;28;20036;-74
2023/04/08 07:36:07;;;;;;;93.30;39.35;;;;;;;8.96;100.00;102119.69;5074369;28;20094;-73
2023/04/08 07:38:33;;;;;;;95.35;41.35;;;;;;;9.28;100.00;102120.84;5068545;28;20032;-74
2023/04/08 07:40:58;;;;;;;96.30;41.60;;;;;;;9.22;100.00;102121.31;5088102;28;20035;-73
2023/04/08 07:43:24;;;;;;;92.40;39.30;;;;;;;9.20;100.00;102115.41;5068114;28;20047;-73
2023/04/08 07:45:50;;;;;;;86.22;37.35;;;;;;;9.16;100.00;102117.41;5071651;28;20024;-74
2023/04/08 07:48:15;;;;;;;87.93;37.85;;;;;;;9.07;100.00;102124.06;5069344;28;20089;-73
2023/04/08 07:50:41;;;;;;;81.30;36.15;;;;;;;8.90;100.00;102134.84;5070000;28;20048;-74
2023/04/08 07:53:07;;;;;;;82.10;37.72;;;;;;;8.75;100.00;102147.13;5087355;28;20097;-73
2023/04/08 07:55:35;;;;;;;78.85;35.95;;;;;;;8.82;100.00;102139.78;5087938;28;20036;-73
2023/04/08 07:58:01;;;;;;;83.72;36.92;;;;;;;8.99;100.00;102149.72;5054965;28;20435;-74
2023/04/08 08:00:29;;;;;;;84.47;38.03;;;;;;;9.35;100.00;102140.97;5070399;28;20032;-74
2023/04/08 08:02:55;;;;;;;84.20;38.20;;;;;;;9.44;100.00;102149.81;5068659;28;20032;-74
2023/04/08 08:05:20;;;;;;;87.95;40.47;;;;;;;9.41;100.00;102144.84;5084813;28;20618;-75
2023/04/08 08:07:46;;;;;;;86.50;40.30;;;;;;;9.71;100.00;102144.28;5089208;28;20031;-74
2023/04/08 08:10:11;;;;;;;85.80;38.92;;;;;;;9.67;100.00;102140.28;5088555;28;20059;-74
2023/04/08 08:12:36;;;;;;;93.00;41.40;;;;;;;9.41;100.00;102146.63;5086814;28;20070;-74
2023/04/08 08:15:03;;;;;;;85.60;39.10;;;;;;;9.20;100.00;102159.41;5089383;28;20023;-74
2023/04/08 08:17:31;;;;;;;91.20;40.53;;;;;;;9.02;100.00;102154.63;5088330;28;20035;-74
2023/04/08 08:19:56;;;;;;;91.10;40.53;;;;;;;8.91;100.00;102160.63;5097627;28;20046;-74
2023/04/08 08:22:22;;;;;;;92.30;40.92;;;;;;;8.77;100.00;102153.84;5068646;28;20510;-74
2023/04/08 08:24:47;;;;;;;91.68;40.72;;;;;;;8.71;100.00;102162.06;5069122;28;20496;-74
2023/04/08 08:27:13;;;;;;;87.00;39.95;;;;;;;8.67;100.00;102164.97;5075867;28;20524;-74
2023/04/08 08:29:38;;;;;;;86.13;39.28;;;;;;;8.68;100.00;102171.78;5087751;28;20085;-74
2023/04/08 08:32:04;;;;;;;93.32;39.42;;;;;;;8.63;100.00;102171.31;5072569;28;20106;-74
2023/04/08 08:34:29;;;;;;;84.40;39.45;;;;;;;8.56;100.00;102173.50;5073130;28;20062;-74
2023/04/08 08:36:55;;;;;;;81.85;36.63;;;;;;;8.66;100.00;102174.47;5069715;28;20152;-74
2023/04/08 08:39:21;;;;;;;71.80;34.47;;;;;;;8.71;100.00;102181.91;5052834;28;20547;-75
2023/04/08 08:41:47;;;;;;;66.78;31.73;;;;;;;8.65;100.00;102180.59;5083603;28;20044;-73
2023/04/08 08:44:12;;;;;;;62.35;29.58;;;;;;;8.67;100.00;102186.47;5089998;28;20077;-74
2023/04/08 08:46:47;;;;;;;56.35;28.27;;;;;;;8.69;100.00;102188.97;5089196;28;20028;-74
2023/04/08 08:49:12;;;;;;;52.30;26.88;;;;;;;8.65;100.00;102200.47;5086244;28;20044;-74
2023/04/08 08:51:39;;;;;;;53.22;26.85;;;;;;;8.57;100.00;102195.84;5073064;28;20030;-74
2023/04/08 08:54:05;;;;;;;52.70;28.17;;;;;;;8.52;100.00;102200.50;5065977;28;20044;-74
2023/04/08 08:56:32;;;;;;;53.90;26.00;;;;;;;8.47;100.00;102197.41;5052501;28;20085;-74
2023/04/08 08:58:57;;;;;;;59.75;30.80;;;;;;;8.56;100.00;102204.53;5087304;28;20050;-73
2023/04/08 09:01:37;;;;;;;53.97;28.58;;;;;;;8.53;100.00;102194.38;5082708;28;20024;-75
2023/04/08 09:04:19;;;;;;;51.10;26.38;;;;;;;8.62;100.00;102201.50;5066592;28;20502;-74
2023/04/08 09:06:49;;;;;;;52.25;26.25;;;;;;;8.69;100.00;102204.47;5084917;28;20035;-74
2023/04/08 09:09:16;;;;;;;49.95;26.52;;;;;;;8.63;100.00;102212.69;5084643;28;20485;-74
2023/04/08 09:11:44;;;;;;;49.80;25.67;;;;;;;8.50;100.00;102200.63;5099386;27;20067;-74
2023/04/08 09:14:18;;;;;;;48.72;24.42;;;;;;;8.54;100.00;102202.03;5054040;28;20103;-74
2023/04/08 09:16:44;;;;;;;47.50;25.48;;;;;;;8.64;100.00;102203.97;5099369;28;20035;-73
2023/04/08 09:19:10;;;;;;;51.08;25.63;;;;;;;8.60;100.00;102205.13;5086389;28;20032;-74
2023/04/08 09:21:37;;;;;;;41.35;23.17;;;;;;;8.46;100.00;102204.34;5073215;28;20024;-74
2023/04/08 09:24:03;;;;;;;46.10;22.67;;;;;;;8.57;100.00;102201.84;5091987;28;20059;-74
2023/04/08 09:26:28;;;;;;;42.80;23.33;;;;;;;8.92;100.00;102205.41;5084295;28;20200;-74
2023/04/08 09:29:01;;;;;;;38.78;21.65;;;;;;;8.77;100.00;102202.97;5097263;28;20097;-74
2023/04/08 09:31:28;;;;;;;43.83;23.30;;;;;;;8.72;100.00;102201.66;5086734;28;20024;-74
2023/04/08 09:33:59;;;;;;;43.88;23.58;;;;;;;8.91;100.00;102203.75;5084359;28;20039;-74
2023/04/08 09:36:28;;;;;;;46.40;23.73;;;;;;;8.84;100.00;102205.16;5081791;28;20074;-75
2023/04/08 09:38:54;;;;;;;47.03;25.02;;;;;;;8.76;100.00;102208.28;5085501;28;20028;-74
2023/04/08 09:41:22;;;;;;;46.20;24.15;;;;;;;8.86;100.00;102208.44;5066295;28;20093;-75
2023/04/08 09:43:51;;;;;;;47.15;24.17;;;;;;;8.93;100.00;102207.91;5102093;28;20028;-74
2023/04/08 09:46:23;;;;;;;43.85;23.58;;;;;;;8.92;100.00;102215.75;5069591;28;20329;-74
2023/04/08 09:49:06;;;;;;;48.92;24.25;;;;;;;8.87;100.00;102216.09;5061825;28;20537;-74
2023/04/08 09:51:39;;;;;;;45.78;25.25;;;;;;;8.83;100.00;102216.41;5087171;28;20046;-74
2023/04/08 09:54:11;;;;;;;46.40;24.70;;;;;;;8.87;100.00;102217.84;5087959;28;20068;-74
2023/04/08 09:56:49;;;;;;;49.58;25.77;;;;;;;9.04;100.00;102214.88;5068864;28;20500;-74
2023/04/08 09:59:17;;;;;;;50.33;26.35;;;;;;;9.16;100.00;102215.75;5088379;28;20509;-74
2023/04/08 10:01:51;;;;;;;51.60;25.95;;;;;;;9.26;100.00;102223.66;5074184;28;20040;-74
2023/04/08 10:04:19;;;;;;;47.25;24.45;;;;;;;9.27;100.00;102217.56;5050463;28;20051;-75
2023/04/08 10:06:52;;;;;;;51.00;25.50;;;;;;;9.18;100.00;102220.81;5072288;28;20034;-74
2023/04/08 10:09:20;;;;;;;50.90;26.33;;;;;;;9.18;100.00;102223.41;5089137;28;20028;-74
2023/04/08 10:11:46;;;;;;;46.38;25.10;;;;;;;9.07;100.00;102227.59;5076020;28;20066;-74
2023/04/08 10:14:12;;;;;;;62.25;31.40;;;;;;;9.14;100.00;102226.22;5085916;28;20070;-74
2023/04/08 10:16:37;;;;;;;53.85;27.80;;;;;;;9.06;100.00;102228.53;5089284;28;20024;-74
2023/04/08 10:19:37;;;;;;;45.40;24.58;;;;;;;9.20;100.00;102218.94;5068990;28;20494;-74
2023/04/08 10:22:03;;;;;;;47.05;24.63;;;;;;;9.51;100.00;102220.06;5065717;28;20173;-75
2023/04/08 10:24:28;;;;;;;45.72;24.70;;;;;;;9.73;100.00;102216.72;5084761;28;20028;-74
2023/04/08 10:26:55;;;;;;;46.80;25.23;;;;;;;9.86;100.00;102222.59;5091588;28;20086;-74
2023/04/08 10:29:20;;;;;;;45.63;25.73;;;;;;;10.00;100.00;102225.91;5089166;28;20034;-75
2023/04/08 10:31:50;;;;;;;45.88;24.98;;;;;;;9.98;98.16;102223.44;5054423;28;20039;-75
2023/04/08 10:34:22;;;;;;;43.08;25.65;;;;;;;10.16;98.22;102221.19;5052723;28;20044;-76
2023/04/08 10:36:48;;;;;;;42.20;23.93;;;;;;;10.52;98.82;102221.91;5084163;28;20036;-75
2023/04/08 10:39:15;;;;;;;44.22;24.33;;;;;;;10.60;98.52;102221.28;5074156;28;20039;-75
2023/04/08 10:41:45;;;;;;;40.47;23.63;;;;;;;10.68;97.22;102204.19;5085991;28;20123;-75
2023/04/08 10:44:17;;;;;;;40.20;23.17;;;;;;;10.68;93.79;102201.59;5084006;28;20520;-75
2023/04/08 10:46:43;;;;;;;43.25;23.52;;;;;;;10.77;95.07;102204.38;5101067;27;20036;-76
2023/04/08 10:49:09;;;;;;;44.80;25.88;;;;;;;10.89;95.62;102196.44;5069698;28;20028;-75
2023/04/08 10:51:35;;;;;;;37.65;22.63;;;;;;;10.92;88.81;102195.34;5059853;28;20028;-74
2023/04/08 10:54:08;;;;;;;35.15;21.73;;;;;;;11.07;88.36;102191.50;5087942;28;20552;-76
2023/04/08 10:56:35;;;;;;;42.75;24.77;;;;;;;11.00;89.65;102190.38;5088107;28;20043;-75
2023/04/08 10:59:02;;;;;;;36.22;21.38;;;;;;;11.10;90.02;102186.06;5088592;28;20052;-75
2023/04/08 11:01:38;;;;;;;35.70;21.02;;;;;;;11.04;86.42;102186.59;5090069;28;20154;-75
2023/04/08 11:04:10;;;;;;;34.42;20.20;;;;;;;11.06;85.21;102181.28;5068905;28;20040;-75
2023/04/08 11:06:36;;;;;;;38.63;21.25;;;;;;;11.31;85.44;102187.88;5104170;27;20036;-75
2023/04/08 11:09:03;;;;;;;42.65;24.58;;;;;;;11.55;82.82;102179.00;5071372;28;20379;-75